sensor_id;sensor_type;location;lat;lon;timestamp;P1;durP1;ratioP1;P2;durP2;ratioP2
10991;SDS011;5549;47.028;15.514;2024-02-04T00:00:03;9.82;;;4.80;;
10991;SDS011;5549;47.028;15.514;2024-02-04T00:02:34;8.90;;;5.32;;
10991;SDS011;5549;47.028;15.514;2024-02-04T00:07:33;8.38;;;4.75;;
10991;SDS011;5549;47.028;15.514;2024-02-04T00:10:00;9.57;;;5.38;;
10991;SDS011;5549;47.028;15.514;2024-02-04T00:12:30;11.07;;;5.03;;
10991;SDS011;5549;47.028;15.514;2024-02-04T00:15:00;9.75;;;5.40;;
10991;SDS011;5549;47.028;15.514;2024-02-04T00:17:29;10.65;;;5.22;;
10991;SDS011;5549;47.028;15.514;2024-02-04T00:20:03;10.40;;;4.82;;
10991;SDS011;5549;47.028;15.514;2024-02-04T00:22:33;9.90;;;5.28;;
10991;SDS011;5549;47.028;15.514;2024-02-04T00:25:00;12.55;;;4.97;;
10991;SDS011;5549;47.028;15.514;2024-02-04T00:27:30;12.32;;;6.03;;
10991;SDS011;5549;47.028;15.514;2024-02-04T00:29:58;11.82;;;5.95;;
10991;SDS011;5549;47.028;15.514;2024-02-04T00:32:28;11.55;;;5.78;;
10991;SDS011;5549;47.028;15.514;2024-02-04T00:34:55;11.23;;;5.55;;
10991;SDS011;5549;47.028;15.514;2024-02-04T00:37:32;12.68;;;6.35;;
10991;SDS011;5549;47.028;15.514;2024-02-04T00:39:59;11.10;;;5.82;;
10991;SDS011;5549;47.028;15.514;2024-02-04T00:42:29;10.65;;;5.00;;
10991;SDS011;5549;47.028;15.514;2024-02-04T00:44:56;10.07;;;5.22;;
10991;SDS011;5549;47.028;15.514;2024-02-04T00:47:24;11.55;;;6.20;;
10991;SDS011;5549;47.028;15.514;2024-02-04T00:49:54;11.18;;;5.28;;
10991;SDS011;5549;47.028;15.514;2024-02-04T00:52:22;13.00;;;5.93;;
10991;SDS011;5549;47.028;15.514;2024-02-04T00:54:53;13.13;;;6.50;;
10991;SDS011;5549;47.028;15.514;2024-02-04T00:57:22;12.20;;;6.35;;
10991;SDS011;5549;47.028;15.514;2024-02-04T00:59:50;12.77;;;6.00;;
10991;SDS011;5549;47.028;15.514;2024-02-04T01:02:20;12.10;;;5.43;;
10991;SDS011;5549;47.028;15.514;2024-02-04T01:04:49;12.38;;;5.72;;
10991;SDS011;5549;47.028;15.514;2024-02-04T01:07:17;10.57;;;5.72;;
10991;SDS011;5549;47.028;15.514;2024-02-04T01:09:47;11.02;;;5.70;;
10991;SDS011;5549;47.028;15.514;2024-02-04T01:12:18;11.18;;;5.75;;
10991;SDS011;5549;47.028;15.514;2024-02-04T01:14:48;14.77;;;6.30;;
10991;SDS011;5549;47.028;15.514;2024-02-04T01:17:16;12.52;;;6.22;;
10991;SDS011;5549;47.028;15.514;2024-02-04T01:19:43;10.95;;;5.68;;
10991;SDS011;5549;47.028;15.514;2024-02-04T01:22:11;12.75;;;6.13;;
10991;SDS011;5549;47.028;15.514;2024-02-04T01:24:41;11.85;;;6.03;;
10991;SDS011;5549;47.028;15.514;2024-02-04T01:27:09;11.85;;;5.93;;
10991;SDS011;5549;47.028;15.514;2024-02-04T01:29:38;12.75;;;6.10;;
10991;SDS011;5549;47.028;15.514;2024-02-04T01:32:08;11.68;;;6.68;;
10991;SDS011;5549;47.028;15.514;2024-02-04T01:34:38;11.27;;;5.65;;
10991;SDS011;5549;47.028;15.514;2024-02-04T01:37:07;10.45;;;5.53;;
10991;SDS011;5549;47.028;15.514;2024-02-04T01:39:35;10.77;;;5.68;;
10991;SDS011;5549;47.028;15.514;2024-02-04T01:42:03;12.55;;;5.20;;
10991;SDS011;5549;47.028;15.514;2024-02-04T01:44:32;10.80;;;4.78;;
10991;SDS011;5549;47.028;15.514;2024-02-04T01:47:01;14.20;;;6.07;;
10991;SDS011;5549;47.028;15.514;2024-02-04T01:49:31;12.40;;;6.75;;
10991;SDS011;5549;47.028;15.514;2024-02-04T01:51:58;11.77;;;5.85;;
10991;SDS011;5549;47.028;15.514;2024-02-04T01:54:31;9.35;;;4.68;;
10991;SDS011;5549;47.028;15.514;2024-02-04T01:57:01;11.73;;;5.30;;
10991;SDS011;5549;47.028;15.514;2024-02-04T01:59:31;11.43;;;5.85;;
10991;SDS011;5549;47.028;15.514;2024-02-04T02:02:00;13.48;;;5.95;;
10991;SDS011;5549;47.028;15.514;2024-02-04T02:04:31;12.25;;;5.78;;
10991;SDS011;5549;47.028;15.514;2024-02-04T02:07:03;11.05;;;5.93;;
10991;SDS011;5549;47.028;15.514;2024-02-04T02:09:39;13.00;;;5.97;;
10991;SDS011;5549;47.028;15.514;2024-02-04T02:12:09;12.10;;;6.32;;
10991;SDS011;5549;47.028;15.514;2024-02-04T02:14:54;10.88;;;5.45;;
10991;SDS011;5549;47.028;15.514;2024-02-04T02:17:31;11.73;;;5.63;;
10991;SDS011;5549;47.028;15.514;2024-02-04T02:20:10;10.07;;;5.07;;
10991;SDS011;5549;47.028;15.514;2024-02-04T02:22:47;12.00;;;5.95;;
10991;SDS011;5549;47.028;15.514;2024-02-04T02:25:20;11.68;;;5.43;;
10991;SDS011;5549;47.028;15.514;2024-02-04T02:27:48;8.43;;;4.88;;
10991;SDS011;5549;47.028;15.514;2024-02-04T02:30:16;11.18;;;4.88;;
10991;SDS011;5549;47.028;15.514;2024-02-04T02:32:44;11.43;;;4.97;;
10991;SDS011;5549;47.028;15.514;2024-02-04T02:35:15;10.10;;;5.25;;
10991;SDS011;5549;47.028;15.514;2024-02-04T02:37:47;11.10;;;5.85;;
10991;SDS011;5549;47.028;15.514;2024-02-04T02:40:25;11.35;;;6.05;;
10991;SDS011;5549;47.028;15.514;2024-02-04T02:42:57;11.40;;;5.53;;
10991;SDS011;5549;47.028;15.514;2024-02-04T02:45:28;11.05;;;5.50;;
10991;SDS011;5549;47.028;15.514;2024-02-04T02:47:57;9.85;;;5.57;;
10991;SDS011;5549;47.028;15.514;2024-02-04T02:50:25;11.85;;;5.63;;
10991;SDS011;5549;47.028;15.514;2024-02-04T02:52:54;10.38;;;5.05;;
10991;SDS011;5549;47.028;15.514;2024-02-04T02:55:26;10.50;;;4.82;;
10991;SDS011;5549;47.028;15.514;2024-02-04T02:57:53;9.55;;;5.07;;
10991;SDS011;5549;47.028;15.514;2024-02-04T03:00:21;9.43;;;5.25;;
10991;SDS011;5549;47.028;15.514;2024-02-04T03:02:51;10.00;;;5.30;;
10991;SDS011;5549;47.028;15.514;2024-02-04T03:05:21;10.50;;;5.35;;
10991;SDS011;5549;47.028;15.514;2024-02-04T03:07:49;10.00;;;5.05;;
10991;SDS011;5549;47.028;15.514;2024-02-04T03:10:17;11.93;;;5.82;;
10991;SDS011;5549;47.028;15.514;2024-02-04T03:12:46;11.75;;;5.47;;
10991;SDS011;5549;47.028;15.514;2024-02-04T03:15:14;9.48;;;5.60;;
10991;SDS011;5549;47.028;15.514;2024-02-04T03:17:43;13.48;;;5.88;;
10991;SDS011;5549;47.028;15.514;2024-02-04T03:20:13;12.13;;;5.57;;
10991;SDS011;5549;47.028;15.514;2024-02-04T03:22:41;11.32;;;5.68;;
10991;SDS011;5549;47.028;15.514;2024-02-04T03:25:10;9.38;;;5.15;;
10991;SDS011;5549;47.028;15.514;2024-02-04T03:27:50;11.48;;;6.00;;
10991;SDS011;5549;47.028;15.514;2024-02-04T03:30:20;9.27;;;4.78;;
10991;SDS011;5549;47.028;15.514;2024-02-04T03:32:48;10.77;;;5.65;;
10991;SDS011;5549;47.028;15.514;2024-02-04T03:35:16;12.85;;;6.60;;
10991;SDS011;5549;47.028;15.514;2024-02-04T03:37:43;12.77;;;5.85;;
10991;SDS011;5549;47.028;15.514;2024-02-04T03:40:13;9.52;;;5.32;;
10991;SDS011;5549;47.028;15.514;2024-02-04T03:42:43;12.95;;;6.00;;
10991;SDS011;5549;47.028;15.514;2024-02-04T03:45:15;14.20;;;5.03;;
10991;SDS011;5549;47.028;15.514;2024-02-04T03:47:42;11.77;;;5.70;;
10991;SDS011;5549;47.028;15.514;2024-02-04T03:50:12;10.20;;;5.25;;
10991;SDS011;5549;47.028;15.514;2024-02-04T03:52:42;11.77;;;5.72;;
10991;SDS011;5549;47.028;15.514;2024-02-04T03:55:12;12.43;;;5.68;;
10991;SDS011;5549;47.028;15.514;2024-02-04T03:57:40;14.57;;;6.03;;
10991;SDS011;5549;47.028;15.514;2024-02-04T04:00:11;12.18;;;5.57;;
10991;SDS011;5549;47.028;15.514;2024-02-04T04:02:43;11.13;;;4.85;;
10991;SDS011;5549;47.028;15.514;2024-02-04T04:05:15;12.40;;;6.22;;
10991;SDS011;5549;47.028;15.514;2024-02-04T04:07:42;11.48;;;5.68;;
10991;SDS011;5549;47.028;15.514;2024-02-04T04:10:13;11.65;;;5.07;;
10991;SDS011;5549;47.028;15.514;2024-02-04T04:12:40;12.45;;;5.35;;
10991;SDS011;5549;47.028;15.514;2024-02-04T04:15:09;14.95;;;5.78;;
10991;SDS011;5549;47.028;15.514;2024-02-04T04:17:37;14.82;;;6.35;;
10991;SDS011;5549;47.028;15.514;2024-02-04T04:20:07;11.45;;;5.88;;
10991;SDS011;5549;47.028;15.514;2024-02-04T04:22:35;10.45;;;5.47;;
10991;SDS011;5549;47.028;15.514;2024-02-04T04:25:08;13.32;;;6.10;;
10991;SDS011;5549;47.028;15.514;2024-02-04T04:27:38;13.82;;;6.55;;
10991;SDS011;5549;47.028;15.514;2024-02-04T04:30:09;13.43;;;6.78;;
10991;SDS011;5549;47.028;15.514;2024-02-04T04:32:38;15.70;;;6.68;;
10991;SDS011;5549;47.028;15.514;2024-02-04T04:35:09;14.10;;;5.60;;
10991;SDS011;5549;47.028;15.514;2024-02-04T04:37:39;10.50;;;6.00;;
10991;SDS011;5549;47.028;15.514;2024-02-04T04:40:09;11.70;;;5.68;;
10991;SDS011;5549;47.028;15.514;2024-02-04T04:42:38;13.82;;;5.55;;
10991;SDS011;5549;47.028;15.514;2024-02-04T04:45:08;13.43;;;6.40;;
10991;SDS011;5549;47.028;15.514;2024-02-04T04:47:37;14.25;;;5.07;;
10991;SDS011;5549;47.028;15.514;2024-02-04T04:50:05;11.95;;;6.32;;
10991;SDS011;5549;47.028;15.514;2024-02-04T04:52:37;11.63;;;5.95;;
10991;SDS011;5549;47.028;15.514;2024-02-04T04:55:06;12.85;;;6.53;;
10991;SDS011;5549;47.028;15.514;2024-02-04T04:57:36;11.50;;;5.25;;
10991;SDS011;5549;47.028;15.514;2024-02-04T05:00:06;11.50;;;5.90;;
10991;SDS011;5549;47.028;15.514;2024-02-04T05:02:36;11.35;;;5.38;;
10991;SDS011;5549;47.028;15.514;2024-02-04T05:05:04;11.75;;;5.70;;
10991;SDS011;5549;47.028;15.514;2024-02-04T05:07:32;8.18;;;4.18;;
10991;SDS011;5549;47.028;15.514;2024-02-04T05:10:01;10.65;;;5.63;;
10991;SDS011;5549;47.028;15.514;2024-02-04T05:12:29;13.32;;;6.72;;
10991;SDS011;5549;47.028;15.514;2024-02-04T05:14:57;12.40;;;6.03;;
10991;SDS011;5549;47.028;15.514;2024-02-04T05:17:27;11.20;;;5.65;;
10991;SDS011;5549;47.028;15.514;2024-02-04T05:19:54;11.75;;;5.68;;
10991;SDS011;5549;47.028;15.514;2024-02-04T05:22:22;11.27;;;5.55;;
10991;SDS011;5549;47.028;15.514;2024-02-04T05:24:50;14.02;;;6.55;;
10991;SDS011;5549;47.028;15.514;2024-02-04T05:27:21;13.38;;;6.00;;
10991;SDS011;5549;47.028;15.514;2024-02-04T05:29:48;12.85;;;6.13;;
10991;SDS011;5549;47.028;15.514;2024-02-04T05:32:16;11.18;;;5.72;;
10991;SDS011;5549;47.028;15.514;2024-02-04T05:34:45;11.88;;;5.72;;
10991;SDS011;5549;47.028;15.514;2024-02-04T05:37:15;11.65;;;6.40;;
10991;SDS011;5549;47.028;15.514;2024-02-04T05:39:43;13.10;;;6.82;;
10991;SDS011;5549;47.028;15.514;2024-02-04T05:42:12;12.13;;;6.10;;
10991;SDS011;5549;47.028;15.514;2024-02-04T05:44:43;12.48;;;6.07;;
10991;SDS011;5549;47.028;15.514;2024-02-04T05:47:11;9.93;;;4.30;;
10991;SDS011;5549;47.028;15.514;2024-02-04T05:49:39;11.27;;;4.93;;
10991;SDS011;5549;47.028;15.514;2024-02-04T05:52:06;9.18;;;5.07;;
10991;SDS011;5549;47.028;15.514;2024-02-04T05:54:37;10.38;;;5.75;;
10991;SDS011;5549;47.028;15.514;2024-02-04T05:57:05;13.55;;;5.45;;
10991;SDS011;5549;47.028;15.514;2024-02-04T05:59:33;14.88;;;6.38;;
10991;SDS011;5549;47.028;15.514;2024-02-04T06:02:02;13.23;;;6.15;;
10991;SDS011;5549;47.028;15.514;2024-02-04T06:04:32;12.85;;;5.53;;
10991;SDS011;5549;47.028;15.514;2024-02-04T06:07:01;12.65;;;5.57;;
10991;SDS011;5549;47.028;15.514;2024-02-04T06:09:32;12.52;;;6.53;;
10991;SDS011;5549;47.028;15.514;2024-02-04T06:12:00;13.13;;;5.97;;
10991;SDS011;5549;47.028;15.514;2024-02-04T06:14:33;12.65;;;6.20;;
10991;SDS011;5549;47.028;15.514;2024-02-04T06:17:06;15.10;;;6.95;;
10991;SDS011;5549;47.028;15.514;2024-02-04T06:22:07;10.40;;;6.15;;
10991;SDS011;5549;47.028;15.514;2024-02-04T06:25:00;9.60;;;4.88;;
10991;SDS011;5549;47.028;15.514;2024-02-04T06:27:30;10.48;;;5.18;;
10991;SDS011;5549;47.028;15.514;2024-02-04T06:30:00;10.85;;;5.57;;
10991;SDS011;5549;47.028;15.514;2024-02-04T06:32:29;9.95;;;4.65;;
10991;SDS011;5549;47.028;15.514;2024-02-04T06:34:59;13.02;;;5.97;;
10991;SDS011;5549;47.028;15.514;2024-02-04T06:37:28;9.80;;;5.20;;
10991;SDS011;5549;47.028;15.514;2024-02-04T06:40:00;6.32;;;3.28;;
10991;SDS011;5549;47.028;15.514;2024-02-04T06:42:28;11.18;;;5.85;;
10991;SDS011;5549;47.028;15.514;2024-02-04T06:44:57;10.38;;;4.72;;
10991;SDS011;5549;47.028;15.514;2024-02-04T06:47:24;11.40;;;5.68;;
10991;SDS011;5549;47.028;15.514;2024-02-04T06:49:57;10.38;;;5.63;;
10991;SDS011;5549;47.028;15.514;2024-02-04T06:52:27;11.57;;;5.95;;
10991;SDS011;5549;47.028;15.514;2024-02-04T06:55:01;10.57;;;5.72;;
10991;SDS011;5549;47.028;15.514;2024-02-04T06:57:30;11.75;;;5.80;;
10991;SDS011;5549;47.028;15.514;2024-02-04T06:59:57;10.35;;;5.40;;
10991;SDS011;5549;47.028;15.514;2024-02-04T07:02:25;11.52;;;5.03;;
10991;SDS011;5549;47.028;15.514;2024-02-04T07:04:53;11.80;;;5.50;;
10991;SDS011;5549;47.028;15.514;2024-02-04T07:07:22;12.52;;;5.95;;
10991;SDS011;5549;47.028;15.514;2024-02-04T07:09:51;7.55;;;3.63;;
10991;SDS011;5549;47.028;15.514;2024-02-04T07:12:19;9.60;;;4.30;;
10991;SDS011;5549;47.028;15.514;2024-02-04T07:14:49;8.40;;;4.18;;
10991;SDS011;5549;47.028;15.514;2024-02-04T07:17:16;10.18;;;4.85;;
10991;SDS011;5549;47.028;15.514;2024-02-04T07:19:46;10.10;;;4.43;;
10991;SDS011;5549;47.028;15.514;2024-02-04T07:22:14;9.50;;;4.93;;
10991;SDS011;5549;47.028;15.514;2024-02-04T07:24:43;6.30;;;3.80;;
10991;SDS011;5549;47.028;15.514;2024-02-04T07:27:13;9.55;;;4.68;;
10991;SDS011;5549;47.028;15.514;2024-02-04T07:29:41;10.07;;;5.10;;
10991;SDS011;5549;47.028;15.514;2024-02-04T07:32:11;11.20;;;4.82;;
10991;SDS011;5549;47.028;15.514;2024-02-04T07:34:40;12.60;;;6.10;;
10991;SDS011;5549;47.028;15.514;2024-02-04T07:37:10;7.07;;;3.38;;
10991;SDS011;5549;47.028;15.514;2024-02-04T07:39:38;7.60;;;4.15;;
10991;SDS011;5549;47.028;15.514;2024-02-04T07:42:09;10.50;;;5.20;;
10991;SDS011;5549;47.028;15.514;2024-02-04T07:44:39;8.00;;;4.25;;
10991;SDS011;5549;47.028;15.514;2024-02-04T07:47:09;8.95;;;4.82;;
10991;SDS011;5549;47.028;15.514;2024-02-04T07:49:38;11.77;;;4.80;;
10991;SDS011;5549;47.028;15.514;2024-02-04T07:52:06;8.98;;;3.83;;
10991;SDS011;5549;47.028;15.514;2024-02-04T07:54:34;8.25;;;3.53;;
10991;SDS011;5549;47.028;15.514;2024-02-04T07:57:01;5.43;;;2.67;;
10991;SDS011;5549;47.028;15.514;2024-02-04T07:59:33;11.15;;;3.85;;
10991;SDS011;5549;47.028;15.514;2024-02-04T08:02:00;7.78;;;3.92;;
10991;SDS011;5549;47.028;15.514;2024-02-04T08:04:30;14.95;;;4.35;;
10991;SDS011;5549;47.028;15.514;2024-02-04T08:06:58;8.23;;;3.80;;
10991;SDS011;5549;47.028;15.514;2024-02-04T08:09:25;6.68;;;3.35;;
10991;SDS011;5549;47.028;15.514;2024-02-04T08:11:53;7.60;;;3.50;;
10991;SDS011;5549;47.028;15.514;2024-02-04T08:14:20;6.72;;;3.00;;
10991;SDS011;5549;47.028;15.514;2024-02-04T08:16:52;8.38;;;3.35;;
10991;SDS011;5549;47.028;15.514;2024-02-04T08:19:19;6.75;;;2.67;;
10991;SDS011;5549;47.028;15.514;2024-02-04T08:21:49;6.35;;;2.50;;
10991;SDS011;5549;47.028;15.514;2024-02-04T08:24:16;5.43;;;2.03;;
10991;SDS011;5549;47.028;15.514;2024-02-04T08:26:47;5.55;;;1.80;;
10991;SDS011;5549;47.028;15.514;2024-02-04T08:29:16;4.55;;;2.20;;
10991;SDS011;5549;47.028;15.514;2024-02-04T08:31:44;4.65;;;2.03;;
10991;SDS011;5549;47.028;15.514;2024-02-04T08:34:13;7.30;;;2.35;;
10991;SDS011;5549;47.028;15.514;2024-02-04T08:36:42;4.65;;;1.70;;
10991;SDS011;5549;47.028;15.514;2024-02-04T08:39:10;3.15;;;1.55;;
10991;SDS011;5549;47.028;15.514;2024-02-04T08:41:40;5.60;;;1.90;;
10991;SDS011;5549;47.028;15.514;2024-02-04T08:44:10;4.63;;;1.92;;
10991;SDS011;5549;47.028;15.514;2024-02-04T08:46:37;6.22;;;1.80;;
10991;SDS011;5549;47.028;15.514;2024-02-04T08:49:13;2.78;;;1.25;;
10991;SDS011;5549;47.028;15.514;2024-02-04T08:51:43;5.60;;;1.98;;
10991;SDS011;5549;47.028;15.514;2024-02-04T08:54:35;7.30;;;3.67;;
10991;SDS011;5549;47.028;15.514;2024-02-04T08:57:03;10.27;;;5.30;;
10991;SDS011;5549;47.028;15.514;2024-02-04T08:59:33;9.45;;;4.32;;
10991;SDS011;5549;47.028;15.514;2024-02-04T09:02:01;6.93;;;3.55;;
10991;SDS011;5549;47.028;15.514;2024-02-04T09:04:30;8.13;;;3.60;;
10991;SDS011;5549;47.028;15.514;2024-02-04T09:07:04;8.13;;;4.35;;
10991;SDS011;5549;47.028;15.514;2024-02-04T09:09:32;8.35;;;3.67;;
10991;SDS011;5549;47.028;15.514;2024-02-04T09:12:05;8.15;;;3.50;;
10991;SDS011;5549;47.028;15.514;2024-02-04T09:14:34;11.93;;;4.07;;
10991;SDS011;5549;47.028;15.514;2024-02-04T09:17:04;7.60;;;3.80;;
10991;SDS011;5549;47.028;15.514;2024-02-04T09:19:33;8.52;;;3.65;;
10991;SDS011;5549;47.028;15.514;2024-02-04T09:22:06;6.10;;;3.10;;
10991;SDS011;5549;47.028;15.514;2024-02-04T09:24:34;7.53;;;3.63;;
10991;SDS011;5549;47.028;15.514;2024-02-04T09:27:04;9.05;;;3.47;;
10991;SDS011;5549;47.028;15.514;2024-02-04T09:29:34;8.35;;;3.60;;
10991;SDS011;5549;47.028;15.514;2024-02-04T09:32:01;7.63;;;3.47;;
10991;SDS011;5549;47.028;15.514;2024-02-04T09:34:29;7.80;;;3.30;;
10991;SDS011;5549;47.028;15.514;2024-02-04T09:37:01;7.93;;;2.65;;
10991;SDS011;5549;47.028;15.514;2024-02-04T09:39:29;7.38;;;3.33;;
10991;SDS011;5549;47.028;15.514;2024-02-04T09:41:59;8.65;;;3.25;;
10991;SDS011;5549;47.028;15.514;2024-02-04T09:44:26;6.10;;;3.50;;
10991;SDS011;5549;47.028;15.514;2024-02-04T09:47:00;7.60;;;3.75;;
10991;SDS011;5549;47.028;15.514;2024-02-04T09:49:30;8.55;;;4.03;;
10991;SDS011;5549;47.028;15.514;2024-02-04T09:52:03;8.90;;;4.28;;
10991;SDS011;5549;47.028;15.514;2024-02-04T09:54:38;8.63;;;3.67;;
10991;SDS011;5549;47.028;15.514;2024-02-04T09:57:11;9.18;;;4.70;;
10991;SDS011;5549;47.028;15.514;2024-02-04T09:59:40;8.52;;;4.50;;
10991;SDS011;5549;47.028;15.514;2024-02-04T10:02:11;10.75;;;5.30;;
10991;SDS011;5549;47.028;15.514;2024-02-04T10:04:39;7.93;;;4.25;;
10991;SDS011;5549;47.028;15.514;2024-02-04T10:07:08;8.30;;;4.10;;
10991;SDS011;5549;47.028;15.514;2024-02-04T10:09:36;7.25;;;4.50;;
10991;SDS011;5549;47.028;15.514;2024-02-04T10:12:04;10.25;;;6.05;;
10991;SDS011;5549;47.028;15.514;2024-02-04T10:14:34;10.80;;;5.78;;
10991;SDS011;5549;47.028;15.514;2024-02-04T10:17:03;12.73;;;6.20;;
10991;SDS011;5549;47.028;15.514;2024-02-04T10:19:31;8.60;;;5.30;;
10991;SDS011;5549;47.028;15.514;2024-02-04T10:21:59;11.73;;;6.68;;
10991;SDS011;5549;47.028;15.514;2024-02-04T10:24:29;12.65;;;7.50;;
10991;SDS011;5549;47.028;15.514;2024-02-04T10:26:57;12.25;;;7.22;;
10991;SDS011;5549;47.028;15.514;2024-02-04T10:29:25;15.25;;;8.80;;
10991;SDS011;5549;47.028;15.514;2024-02-04T10:31:53;14.50;;;9.15;;
10991;SDS011;5549;47.028;15.514;2024-02-04T10:34:22;14.57;;;8.55;;
10991;SDS011;5549;47.028;15.514;2024-02-04T10:36:50;14.98;;;8.60;;
10991;SDS011;5549;47.028;15.514;2024-02-04T10:39:18;12.80;;;6.78;;
10991;SDS011;5549;47.028;15.514;2024-02-04T10:41:48;10.15;;;6.47;;
10991;SDS011;5549;47.028;15.514;2024-02-04T10:44:23;12.45;;;6.20;;
10991;SDS011;5549;47.028;15.514;2024-02-04T10:46:55;11.52;;;5.55;;
10991;SDS011;5549;47.028;15.514;2024-02-04T10:49:26;8.60;;;4.68;;
10991;SDS011;5549;47.028;15.514;2024-02-04T10:51:55;9.25;;;4.93;;
10991;SDS011;5549;47.028;15.514;2024-02-04T10:54:27;10.52;;;5.43;;
10991;SDS011;5549;47.028;15.514;2024-02-04T10:56:58;7.97;;;4.40;;
10991;SDS011;5549;47.028;15.514;2024-02-04T10:59:34;9.07;;;4.65;;
10991;SDS011;5549;47.028;15.514;2024-02-04T11:02:02;7.80;;;4.30;;
10991;SDS011;5549;47.028;15.514;2024-02-04T11:04:32;6.65;;;4.70;;
10991;SDS011;5549;47.028;15.514;2024-02-04T11:07:01;10.63;;;6.32;;
10991;SDS011;5549;47.028;15.514;2024-02-04T11:09:29;10.18;;;6.65;;
10991;SDS011;5549;47.028;15.514;2024-02-04T11:12:01;10.00;;;5.30;;
10991;SDS011;5549;47.028;15.514;2024-02-04T11:14:36;11.65;;;6.97;;
10991;SDS011;5549;47.028;15.514;2024-02-04T11:17:17;10.85;;;6.15;;
10991;SDS011;5549;47.028;15.514;2024-02-04T11:20:19;14.77;;;8.50;;
10991;SDS011;5549;47.028;15.514;2024-02-04T11:26:02;11.10;;;7.43;;
10991;SDS011;5549;47.028;15.514;2024-02-04T11:28:33;12.52;;;7.18;;
10991;SDS011;5549;47.028;15.514;2024-02-04T11:31:02;12.48;;;7.45;;
10991;SDS011;5549;47.028;15.514;2024-02-04T11:33:32;11.70;;;6.35;;
10991;SDS011;5549;47.028;15.514;2024-02-04T11:36:03;10.50;;;6.65;;
10991;SDS011;5549;47.028;15.514;2024-02-04T11:38:35;10.20;;;7.00;;
10991;SDS011;5549;47.028;15.514;2024-02-04T11:41:03;8.98;;;5.88;;
10991;SDS011;5549;47.028;15.514;2024-02-04T11:43:36;8.50;;;5.55;;
10991;SDS011;5549;47.028;15.514;2024-02-04T11:46:04;8.73;;;4.80;;
10991;SDS011;5549;47.028;15.514;2024-02-04T11:48:33;7.22;;;4.57;;
10991;SDS011;5549;47.028;15.514;2024-02-04T11:51:02;9.95;;;5.13;;
10991;SDS011;5549;47.028;15.514;2024-02-04T11:53:35;6.32;;;3.95;;
10991;SDS011;5549;47.028;15.514;2024-02-04T11:56:03;10.18;;;5.57;;
10991;SDS011;5549;47.028;15.514;2024-02-04T11:58:32;8.20;;;4.53;;
10991;SDS011;5549;47.028;15.514;2024-02-04T12:01:02;9.93;;;5.80;;
10991;SDS011;5549;47.028;15.514;2024-02-04T12:03:29;9.80;;;5.70;;
10991;SDS011;5549;47.028;15.514;2024-02-04T12:05:58;12.48;;;7.72;;
10991;SDS011;5549;47.028;15.514;2024-02-04T12:08:28;9.18;;;5.78;;
10991;SDS011;5549;47.028;15.514;2024-02-04T12:10:58;8.95;;;5.28;;
10991;SDS011;5549;47.028;15.514;2024-02-04T12:13:28;7.55;;;5.13;;
10991;SDS011;5549;47.028;15.514;2024-02-04T12:15:55;8.00;;;5.10;;
10991;SDS011;5549;47.028;15.514;2024-02-04T12:18:27;8.02;;;4.90;;
10991;SDS011;5549;47.028;15.514;2024-02-04T12:20:54;9.77;;;4.97;;
10991;SDS011;5549;47.028;15.514;2024-02-04T12:23:22;9.57;;;5.30;;
10991;SDS011;5549;47.028;15.514;2024-02-04T12:25:51;9.57;;;4.88;;
10991;SDS011;5549;47.028;15.514;2024-02-04T12:28:21;6.57;;;3.70;;
10991;SDS011;5549;47.028;15.514;2024-02-04T12:30:53;8.13;;;3.80;;
10991;SDS011;5549;47.028;15.514;2024-02-04T12:33:23;6.65;;;3.72;;
10991;SDS011;5549;47.028;15.514;2024-02-04T12:35:54;6.07;;;3.08;;
10991;SDS011;5549;47.028;15.514;2024-02-04T12:38:24;6.70;;;3.50;;
10991;SDS011;5549;47.028;15.514;2024-02-04T12:40:52;7.88;;;3.22;;
10991;SDS011;5549;47.028;15.514;2024-02-04T12:43:28;5.10;;;2.80;;
10991;SDS011;5549;47.028;15.514;2024-02-04T12:45:55;5.00;;;3.00;;
10991;SDS011;5549;47.028;15.514;2024-02-04T12:48:26;3.70;;;2.05;;
10991;SDS011;5549;47.028;15.514;2024-02-04T12:50:58;4.13;;;1.90;;
10991;SDS011;5549;47.028;15.514;2024-02-04T12:53:27;6.35;;;2.05;;
10991;SDS011;5549;47.028;15.514;2024-02-04T12:55:58;4.90;;;2.35;;
10991;SDS011;5549;47.028;15.514;2024-02-04T12:58:25;3.38;;;2.10;;
10991;SDS011;5549;47.028;15.514;2024-02-04T13:00:59;4.45;;;2.10;;
10991;SDS011;5549;47.028;15.514;2024-02-04T13:03:28;3.88;;;1.98;;
10991;SDS011;5549;47.028;15.514;2024-02-04T13:06:00;4.78;;;2.40;;
10991;SDS011;5549;47.028;15.514;2024-02-04T13:08:28;4.07;;;2.58;;
10991;SDS011;5549;47.028;15.514;2024-02-04T13:10:56;4.90;;;2.47;;
10991;SDS011;5549;47.028;15.514;2024-02-04T13:13:26;4.15;;;1.98;;
10991;SDS011;5549;47.028;15.514;2024-02-04T13:15:56;5.10;;;2.03;;
10991;SDS011;5549;47.028;15.514;2024-02-04T13:18:26;4.05;;;1.40;;
10991;SDS011;5549;47.028;15.514;2024-02-04T13:20:54;3.08;;;1.40;;
10991;SDS011;5549;47.028;15.514;2024-02-04T13:23:23;4.82;;;1.75;;
10991;SDS011;5549;47.028;15.514;2024-02-04T13:25:51;4.43;;;1.80;;
10991;SDS011;5549;47.028;15.514;2024-02-04T13:28:21;2.85;;;1.35;;
10991;SDS011;5549;47.028;15.514;2024-02-04T13:30:49;2.55;;;1.13;;
10991;SDS011;5549;47.028;15.514;2024-02-04T13:33:17;5.93;;;1.35;;
10991;SDS011;5549;47.028;15.514;2024-02-04T13:35:45;3.03;;;1.20;;
10991;SDS011;5549;47.028;15.514;2024-02-04T13:38:17;5.35;;;1.25;;
10991;SDS011;5549;47.028;15.514;2024-02-04T13:40:46;4.82;;;1.70;;
10991;SDS011;5549;47.028;15.514;2024-02-04T13:43:15;6.30;;;2.30;;
10991;SDS011;5549;47.028;15.514;2024-02-04T13:45:43;6.75;;;2.15;;
10991;SDS011;5549;47.028;15.514;2024-02-04T13:48:11;4.28;;;1.30;;
10991;SDS011;5549;47.028;15.514;2024-02-04T13:50:41;4.43;;;1.65;;
10991;SDS011;5549;47.028;15.514;2024-02-04T13:53:12;4.18;;;1.33;;
10991;SDS011;5549;47.028;15.514;2024-02-04T13:55:41;4.30;;;1.45;;
10991;SDS011;5549;47.028;15.514;2024-02-04T13:58:10;5.38;;;1.85;;
10991;SDS011;5549;47.028;15.514;2024-02-04T14:00:37;3.83;;;1.70;;
10991;SDS011;5549;47.028;15.514;2024-02-04T14:03:05;3.03;;;1.30;;
10991;SDS011;5549;47.028;15.514;2024-02-04T14:05:35;5.03;;;1.58;;
10991;SDS011;5549;47.028;15.514;2024-02-04T14:08:05;3.75;;;1.50;;
10991;SDS011;5549;47.028;15.514;2024-02-04T14:10:35;3.58;;;1.50;;
10991;SDS011;5549;47.028;15.514;2024-02-04T14:13:06;4.80;;;1.92;;
10991;SDS011;5549;47.028;15.514;2024-02-04T14:15:35;4.80;;;1.92;;
10991;SDS011;5549;47.028;15.514;2024-02-04T14:18:02;3.75;;;1.58;;
10991;SDS011;5549;47.028;15.514;2024-02-04T14:20:33;3.90;;;1.70;;
10991;SDS011;5549;47.028;15.514;2024-02-04T14:23:01;3.58;;;1.80;;
10991;SDS011;5549;47.028;15.514;2024-02-04T14:25:31;5.90;;;2.70;;
10991;SDS011;5549;47.028;15.514;2024-02-04T14:28:01;4.43;;;1.55;;
10991;SDS011;5549;47.028;15.514;2024-02-04T14:30:29;4.90;;;1.73;;
10991;SDS011;5549;47.028;15.514;2024-02-04T14:33:00;4.10;;;1.67;;
10991;SDS011;5549;47.028;15.514;2024-02-04T14:35:28;4.90;;;1.80;;
10991;SDS011;5549;47.028;15.514;2024-02-04T14:37:58;3.20;;;1.60;;
10991;SDS011;5549;47.028;15.514;2024-02-04T14:40:29;3.50;;;1.77;;
10991;SDS011;5549;47.028;15.514;2024-02-04T14:42:57;4.00;;;1.70;;
10991;SDS011;5549;47.028;15.514;2024-02-04T14:45:24;3.45;;;1.63;;
10991;SDS011;5549;47.028;15.514;2024-02-04T14:47:54;3.45;;;1.60;;
10991;SDS011;5549;47.028;15.514;2024-02-04T14:50:25;5.55;;;2.35;;
10991;SDS011;5549;47.028;15.514;2024-02-04T14:52:53;6.22;;;1.80;;
10991;SDS011;5549;47.028;15.514;2024-02-04T14:55:21;3.72;;;1.60;;
10991;SDS011;5549;47.028;15.514;2024-02-04T14:57:50;3.75;;;1.75;;
10991;SDS011;5549;47.028;15.514;2024-02-04T15:00:20;6.32;;;2.72;;
10991;SDS011;5549;47.028;15.514;2024-02-04T15:02:53;5.68;;;2.40;;